PWSweather.com
Personal Weather Stations
Station Observations
KKYCRABO2
Cedar Creek Lake 840 Ky. Hwy. 39 N, Crab Orchard, KY 40419

Cedar Creek Lake 840 Ky. Hwy. 39 NCrab Orchard, KY 40419

Lat: 37.4736234544238, Lon: -84.5120286941528

Elevation: 952

Station Type: TYCON Power TP1080WC Pro

http://kbweather.net/

High Low Average
Temperature 83.3°F28.5°F 67.5°F19.7°F 71.9°F22.2°F
Dew Point 69.8°F21.0°F 66.2°F19.0°F 67.9°F19.9°F
Winds 3.4 mph E5.5 mph E Calm Calm 0.3 mph 0.5 mph
Wind Gusts 5.8 mph9.3 mph -- 1.4 mph2.3 mph
Humidity 96% 60% 87%
Pressure 30.18 in1022.00 in 30.09 in1019.00 in -
Precipitation 5.32 in135.10 in - -
Hour Temp Dew Point Humidity Winds Wind Gusts Pressure Precip Precip Rate Daily Precip Total
12:00 AM 70.5°F21.4°C 68.0°F20.0°C 93% Calm Calm -- 30.12 in1020.0 mb 0.00 in0.0 mm 0.00 in0.0 mm 0.00 in0.0 mm
12:05 AM 70.5°F21.4°C 68.0°F20.0°C 92% Calm Calm -- 30.12 in1020.0 mb 0.00 in0.0 mm 0.00 in0.0 mm 0.00 in0.0 mm
12:10 AM 70.3°F21.3°C 68.0°F20.0°C 93% Calm Calm -- 30.12 in1020.0 mb 0.00 in0.0 mm 0.00 in0.0 mm 0.00 in0.0 mm
12:15 AM 70.3°F21.3°C 68.0°F20.0°C 93% Calm Calm -- 30.12 in1020.0 mb 0.00 in0.0 mm 0.00 in0.0 mm 0.00 in0.0 mm
12:20 AM 70.3°F21.3°C 68.0°F20.0°C 93% Calm Calm -- 30.12 in1020.0 mb 0.00 in0.0 mm 0.00 in0.0 mm 0.00 in0.0 mm
12:25 AM 70.3°F21.3°C 68.0°F20.0°C 93% Calm Calm -- 30.12 in1020.0 mb 0.00 in0.0 mm 0.00 in0.0 mm 0.00 in0.0 mm
12:30 AM 70.2°F21.2°C 68.0°F20.0°C 93% Calm Calm -- 30.15 in1021.0 mb 0.00 in0.0 mm 0.00 in0.0 mm 0.00 in0.0 mm
12:35 AM 70.3°F21.3°C 68.0°F20.0°C 93% Calm Calm -- 30.15 in1021.0 mb 0.00 in0.0 mm 0.00 in0.0 mm 0.00 in0.0 mm
12:40 AM 70.5°F21.4°C 68.0°F20.0°C 93% Calm Calm -- 30.15 in1021.0 mb 0.00 in0.0 mm 0.00 in0.0 mm 0.00 in0.0 mm
12:45 AM 70.7°F21.5°C 69.8°F21.0°C 94% Calm Calm -- 30.12 in1020.0 mb 0.00 in0.0 mm 0.00 in0.0 mm 0.00 in0.0 mm
12:50 AM 70.7°F21.5°C 69.8°F21.0°C 93% Calm Calm 1.1 mph1.8 kmh 30.12 in1020.0 mb 0.00 in0.0 mm 0.00 in0.0 mm 0.00 in0.0 mm
12:55 AM 70.7°F21.5°C 69.8°F21.0°C 93% Calm Calm 1.1 mph1.8 kmh 30.12 in1020.0 mb 0.00 in0.0 mm 0.00 in0.0 mm 0.00 in0.0 mm
01:00 AM 70.7°F21.5°C 69.8°F21.0°C 93% Calm Calm -- 30.12 in1020.0 mb 0.00 in0.0 mm 0.00 in0.0 mm 0.00 in0.0 mm
01:05 AM 70.7°F21.5°C 69.8°F21.0°C 93% Calm Calm -- 30.12 in1020.0 mb 0.00 in0.0 mm 0.00 in0.0 mm 0.00 in0.0 mm
01:10 AM 70.5°F21.4°C 68.0°F20.0°C 93% Calm Calm 1.1 mph1.8 kmh 30.12 in1020.0 mb 0.00 in0.0 mm 0.00 in0.0 mm 0.00 in0.0 mm
01:15 AM 70.5°F21.4°C 68.0°F20.0°C 93% Calm Calm 1.1 mph1.8 kmh 30.09 in1019.0 mb 0.00 in0.0 mm 0.00 in0.0 mm 0.00 in0.0 mm
01:20 AM 70.3°F21.3°C 68.0°F20.0°C 93% Calm Calm -- 30.09 in1019.0 mb 0.00 in0.0 mm 0.00 in0.0 mm 0.00 in0.0 mm
01:25 AM 70.3°F21.3°C 68.0°F20.0°C 93% Calm Calm -- 30.09 in1019.0 mb 0.00 in0.0 mm 0.00 in0.0 mm 0.00 in0.0 mm
01:30 AM 70.2°F21.2°C 68.0°F20.0°C 93% Calm Calm -- 30.12 in1020.0 mb 0.00 in0.0 mm 0.00 in0.0 mm 0.00 in0.0 mm
01:35 AM 70.2°F21.2°C 68.0°F20.0°C 93% Calm Calm -- 30.12 in1020.0 mb 0.00 in0.0 mm 0.00 in0.0 mm 0.00 in0.0 mm
01:40 AM 70.2°F21.2°C 68.0°F20.0°C 93% Calm Calm -- 30.12 in1020.0 mb 0.00 in0.0 mm 0.00 in0.0 mm 0.00 in0.0 mm
01:45 AM 70.0°F21.1°C 68.0°F20.0°C 93% Calm Calm -- 30.12 in1020.0 mb 0.00 in0.0 mm 0.00 in0.0 mm 0.00 in0.0 mm
01:50 AM 70.0°F21.1°C 68.0°F20.0°C 93% Calm Calm -- 30.12 in1020.0 mb 0.00 in0.0 mm 0.00 in0.0 mm 0.00 in0.0 mm
01:55 AM 70.2°F21.2°C 68.0°F20.0°C 94% Calm Calm -- 30.12 in1020.0 mb 0.00 in0.0 mm 0.00 in0.0 mm 0.00 in0.0 mm
02:00 AM 70.0°F21.1°C 68.0°F20.0°C 94% Calm Calm -- 30.12 in1020.0 mb 0.00 in0.0 mm 0.00 in0.0 mm 0.00 in0.0 mm
02:05 AM 70.0°F21.1°C 68.0°F20.0°C 94% Calm Calm -- 30.12 in1020.0 mb 0.00 in0.0 mm 0.00 in0.0 mm 0.00 in0.0 mm
02:10 AM 70.0°F21.1°C 68.0°F20.0°C 94% Calm Calm -- 30.12 in1020.0 mb 0.00 in0.0 mm 0.00 in0.0 mm 0.00 in0.0 mm
02:15 AM 70.0°F21.1°C 68.0°F20.0°C 94% Calm Calm -- 30.12 in1020.0 mb 0.00 in0.0 mm 0.00 in0.0 mm 0.00 in0.0 mm
02:20 AM 70.2°F21.2°C 68.0°F20.0°C 94% Calm Calm -- 30.12 in1020.0 mb 0.00 in0.0 mm 0.00 in0.0 mm 0.00 in0.0 mm
02:25 AM 70.0°F21.1°C 68.0°F20.0°C 94% Calm Calm -- 30.12 in1020.0 mb 0.00 in0.0 mm 0.00 in0.0 mm 0.00 in0.0 mm
02:30 AM 70.0°F21.1°C 68.0°F20.0°C 94% Calm Calm -- 30.09 in1019.0 mb 0.00 in0.0 mm 0.00 in0.0 mm 0.00 in0.0 mm
02:35 AM 69.8°F21.0°C 68.0°F20.0°C 94% Calm Calm -- 30.09 in1019.0 mb 0.00 in0.0 mm 0.00 in0.0 mm 0.00 in0.0 mm
02:40 AM 69.6°F20.9°C 68.0°F20.0°C 94% Calm Calm 1.3 mph2.1 kmh 30.09 in1019.0 mb 0.00 in0.0 mm 0.00 in0.0 mm 0.00 in0.0 mm
02:45 AM 69.6°F20.9°C 68.0°F20.0°C 94% 0.9 mph ESE1.4 kmh ESE 1.6 mph2.6 kmh 30.09 in1019.0 mb 0.00 in0.0 mm 0.00 in0.0 mm 0.00 in0.0 mm
02:50 AM 69.4°F20.8°C 68.0°F20.0°C 94% Calm Calm 1.6 mph2.6 kmh 30.09 in1019.0 mb 0.00 in0.0 mm 0.00 in0.0 mm 0.00 in0.0 mm
02:55 AM 69.4°F20.8°C 68.0°F20.0°C 94% Calm Calm 1.3 mph2.1 kmh 30.09 in1019.0 mb 0.00 in0.0 mm 0.00 in0.0 mm 0.00 in0.0 mm
03:00 AM 69.4°F20.8°C 68.0°F20.0°C 94% Calm Calm 1.3 mph2.1 kmh 30.09 in1019.0 mb 0.00 in0.0 mm 0.00 in0.0 mm 0.00 in0.0 mm
03:05 AM 69.3°F20.7°C 68.0°F20.0°C 94% Calm Calm -- 30.09 in1019.0 mb 0.00 in0.0 mm 0.00 in0.0 mm 0.00 in0.0 mm
03:10 AM 69.4°F20.8°C 68.0°F20.0°C 94% Calm Calm -- 30.09 in1019.0 mb 0.00 in0.0 mm 0.00 in0.0 mm 0.00 in0.0 mm
03:15 AM 69.4°F20.8°C 68.0°F20.0°C 94% Calm Calm -- 30.12 in1020.0 mb 0.00 in0.0 mm 0.00 in0.0 mm 0.00 in0.0 mm
03:20 AM 69.6°F20.9°C 68.0°F20.0°C 94% Calm Calm -- 30.12 in1020.0 mb 0.00 in0.0 mm 0.00 in0.0 mm 0.00 in0.0 mm
03:25 AM 69.6°F20.9°C 68.0°F20.0°C 94% Calm Calm -- 30.12 in1020.0 mb 0.00 in0.0 mm 0.00 in0.0 mm 0.00 in0.0 mm
03:30 AM 69.6°F20.9°C 68.0°F20.0°C 94% Calm Calm -- 30.09 in1019.0 mb 0.00 in0.0 mm 0.00 in0.0 mm 0.00 in0.0 mm
03:35 AM 69.8°F21.0°C 68.0°F20.0°C 95% Calm Calm -- 30.09 in1019.0 mb 0.00 in0.0 mm 0.00 in0.0 mm 0.00 in0.0 mm
03:40 AM 69.8°F21.0°C 68.0°F20.0°C 95% Calm Calm -- 30.09 in1019.0 mb 0.00 in0.0 mm 0.00 in0.0 mm 0.00 in0.0 mm
03:45 AM 69.8°F21.0°C 68.0°F20.0°C 95% Calm Calm -- 30.09 in1019.0 mb 0.00 in0.0 mm 0.00 in0.0 mm 0.00 in0.0 mm
03:50 AM 70.0°F21.1°C 68.0°F20.0°C 95% Calm Calm -- 30.09 in1019.0 mb 0.00 in0.0 mm 0.00 in0.0 mm 0.00 in0.0 mm
03:55 AM 70.0°F21.1°C 68.0°F20.0°C 95% Calm Calm -- 30.09 in1019.0 mb 0.00 in0.0 mm 0.00 in0.0 mm 0.00 in0.0 mm
04:00 AM 70.0°F21.1°C 68.0°F20.0°C 95% Calm Calm -- 30.12 in1020.0 mb 0.00 in0.0 mm 0.00 in0.0 mm 0.00 in0.0 mm
04:05 AM 70.0°F21.1°C 68.0°F20.0°C 95% Calm Calm 1.6 mph2.6 kmh 30.12 in1020.0 mb 0.00 in0.0 mm 0.00 in0.0 mm 0.00 in0.0 mm
04:10 AM 69.8°F21.0°C 68.0°F20.0°C 95% Calm Calm 2.2 mph3.5 kmh 30.12 in1020.0 mb 0.00 in0.0 mm 0.00 in0.0 mm 0.00 in0.0 mm
04:15 AM 69.8°F21.0°C 68.0°F20.0°C 95% Calm Calm 2.2 mph3.5 kmh 30.12 in1020.0 mb 0.00 in0.0 mm 0.00 in0.0 mm 0.00 in0.0 mm
04:20 AM 69.6°F20.9°C 68.0°F20.0°C 94% Calm Calm 1.6 mph2.6 kmh 30.12 in1020.0 mb 0.00 in0.0 mm 0.00 in0.0 mm 0.00 in0.0 mm
04:25 AM 69.6°F20.9°C 68.0°F20.0°C 94% Calm Calm 1.6 mph2.6 kmh 30.12 in1020.0 mb 0.00 in0.0 mm 0.00 in0.0 mm 0.00 in0.0 mm
04:30 AM 69.6°F20.9°C 68.0°F20.0°C 95% 1.1 mph SE1.8 kmh SE 3.6 mph5.8 kmh 30.12 in1020.0 mb 0.00 in0.0 mm 0.00 in0.0 mm 0.00 in0.0 mm
04:35 AM 69.6°F20.9°C 68.0°F20.0°C 95% Calm Calm 3.6 mph5.8 kmh 30.12 in1020.0 mb 0.00 in0.0 mm 0.00 in0.0 mm 0.00 in0.0 mm
04:40 AM 69.6°F20.9°C 68.0°F20.0°C 95% 1.1 mph S1.8 kmh S 2.9 mph4.7 kmh 30.12 in1020.0 mb 0.00 in0.0 mm 0.00 in0.0 mm 0.00 in0.0 mm
04:45 AM 69.6°F20.9°C 68.0°F20.0°C 95% 1.1 mph S1.8 kmh S 2.9 mph4.7 kmh 30.12 in1020.0 mb 0.00 in0.0 mm 0.00 in0.0 mm 0.00 in0.0 mm
04:50 AM 69.6°F20.9°C 68.0°F20.0°C 95% 0.9 mph S1.4 kmh S 2.9 mph4.7 kmh 30.12 in1020.0 mb 0.00 in0.0 mm 0.00 in0.0 mm 0.00 in0.0 mm
04:55 AM 69.6°F20.9°C 68.0°F20.0°C 95% Calm Calm 2.0 mph3.2 kmh 30.12 in1020.0 mb 0.00 in0.0 mm 0.00 in0.0 mm 0.00 in0.0 mm
05:00 AM 69.6°F20.9°C 68.0°F20.0°C 95% Calm Calm 1.6 mph2.6 kmh 30.12 in1020.0 mb 0.00 in0.0 mm 0.00 in0.0 mm 0.00 in0.0 mm
05:05 AM 69.6°F20.9°C 68.0°F20.0°C 95% Calm Calm 1.1 mph1.8 kmh 30.12 in1020.0 mb 0.00 in0.0 mm 0.00 in0.0 mm 0.00 in0.0 mm
05:10 AM 69.6°F20.9°C 68.0°F20.0°C 95% 1.1 mph S1.8 kmh S 1.6 mph2.6 kmh 30.12 in1020.0 mb 0.00 in0.0 mm 0.00 in0.0 mm 0.00 in0.0 mm
05:15 AM 69.6°F20.9°C 68.0°F20.0°C 94% Calm Calm 1.6 mph2.6 kmh 30.12 in1020.0 mb 0.00 in0.0 mm 0.00 in0.0 mm 0.00 in0.0 mm
05:20 AM 69.6°F20.9°C 68.0°F20.0°C 94% Calm Calm 2.0 mph3.2 kmh 30.12 in1020.0 mb 0.00 in0.0 mm 0.00 in0.0 mm 0.00 in0.0 mm
05:25 AM 69.4°F20.8°C 68.0°F20.0°C 93% 1.1 mph SW1.8 kmh SW 2.5 mph4.0 kmh 30.12 in1020.0 mb 0.00 in0.0 mm 0.00 in0.0 mm 0.00 in0.0 mm
05:30 AM 69.4°F20.8°C 66.2°F19.0°C 92% 1.1 mph SW1.8 kmh SW 2.5 mph4.0 kmh 30.12 in1020.0 mb 0.00 in0.0 mm 0.00 in0.0 mm 0.00 in0.0 mm
05:35 AM 69.4°F20.8°C 66.2°F19.0°C 92% Calm Calm 2.0 mph3.2 kmh 30.12 in1020.0 mb 0.00 in0.0 mm 0.00 in0.0 mm 0.00 in0.0 mm
05:40 AM 69.4°F20.8°C 66.2°F19.0°C 91% 0.9 mph SSW1.4 kmh SSW 2.0 mph3.2 kmh 30.12 in1020.0 mb 0.00 in0.0 mm 0.00 in0.0 mm 0.00 in0.0 mm
05:45 AM 69.4°F20.8°C 66.2°F19.0°C 91% Calm Calm 2.5 mph4.0 kmh 30.12 in1020.0 mb 0.00 in0.0 mm 0.00 in0.0 mm 0.00 in0.0 mm
05:50 AM 69.4°F20.8°C 66.2°F19.0°C 91% Calm Calm 2.5 mph4.0 kmh 30.12 in1020.0 mb 0.00 in0.0 mm 0.00 in0.0 mm 0.00 in0.0 mm
05:55 AM 69.3°F20.7°C 66.2°F19.0°C 91% Calm Calm 1.6 mph2.6 kmh 30.12 in1020.0 mb 0.00 in0.0 mm 0.00 in0.0 mm 0.00 in0.0 mm
06:00 AM 69.1°F20.6°C 66.2°F19.0°C 91% Calm Calm 1.6 mph2.6 kmh 30.09 in1019.0 mb 0.00 in0.0 mm 0.00 in0.0 mm 0.00 in0.0 mm
06:05 AM 68.9°F20.5°C 66.2°F19.0°C 91% 1.1 mph S1.8 kmh S 2.5 mph4.0 kmh 30.09 in1019.0 mb 0.00 in0.0 mm 0.00 in0.0 mm 0.00 in0.0 mm
06:10 AM 68.7°F20.4°C 66.2°F19.0°C 92% Calm Calm 2.9 mph4.7 kmh 30.09 in1019.0 mb 0.00 in0.0 mm 0.00 in0.0 mm 0.00 in0.0 mm
06:15 AM 68.7°F20.4°C 66.2°F19.0°C 92% Calm Calm 2.9 mph4.7 kmh 30.09 in1019.0 mb 0.04 in1.0 mm 0.48 in12.2 mm 0.04 in1.0 mm
06:20 AM 68.7°F20.4°C 66.2°F19.0°C 92% Calm Calm 1.1 mph1.8 kmh 30.09 in1019.0 mb 0.08 in2.0 mm 0.48 in12.2 mm 0.08 in2.0 mm
06:25 AM 68.2°F20.1°C 66.2°F19.0°C 92% Calm Calm 1.1 mph1.8 kmh 30.09 in1019.0 mb 0.08 in2.0 mm 0.00 in0.0 mm 0.08 in2.0 mm
06:30 AM 68.2°F20.1°C 66.2°F19.0°C 92% Calm Calm -- 30.09 in1019.0 mb 0.12 in3.0 mm 0.48 in12.2 mm 0.12 in3.0 mm
06:35 AM 68.2°F20.1°C 66.2°F19.0°C 92% Calm Calm -- 30.09 in1019.0 mb 0.12 in3.0 mm 0.00 in0.0 mm 0.12 in3.0 mm
06:40 AM 68.2°F20.1°C 66.2°F19.0°C 92% Calm Calm -- 30.09 in1019.0 mb 0.12 in3.0 mm 0.00 in0.0 mm 0.12 in3.0 mm
06:45 AM 68.2°F20.1°C 66.2°F19.0°C 92% Calm Calm -- 30.12 in1020.0 mb 0.12 in3.0 mm 0.00 in0.0 mm 0.12 in3.0 mm
06:50 AM 68.2°F20.1°C 66.2°F19.0°C 92% Calm Calm -- 30.12 in1020.0 mb 0.12 in3.0 mm 0.00 in0.0 mm 0.12 in3.0 mm
06:55 AM 68.2°F20.1°C 66.2°F19.0°C 92% Calm Calm -- 30.12 in1020.0 mb 0.12 in3.0 mm 0.00 in0.0 mm 0.12 in3.0 mm
07:00 AM 68.2°F20.1°C 66.2°F19.0°C 92% Calm Calm -- 30.09 in1019.0 mb 0.12 in3.0 mm 0.00 in0.0 mm 0.12 in3.0 mm
07:05 AM 68.2°F20.1°C 66.2°F19.0°C 92% Calm Calm -- 30.09 in1019.0 mb 0.12 in3.0 mm 0.00 in0.0 mm 0.12 in3.0 mm
07:10 AM 68.2°F20.1°C 66.2°F19.0°C 92% Calm Calm -- 30.09 in1019.0 mb 0.08 in2.0 mm 0.00 in0.0 mm 0.12 in3.0 mm
07:15 AM 68.2°F20.1°C 66.2°F19.0°C 92% Calm Calm -- 30.12 in1020.0 mb 0.08 in2.0 mm 0.00 in0.0 mm 0.12 in3.0 mm
07:20 AM 68.2°F20.1°C 66.2°F19.0°C 92% Calm Calm -- 30.12 in1020.0 mb 0.04 in1.0 mm 0.00 in0.0 mm 0.12 in3.0 mm
07:25 AM 68.2°F20.1°C 66.2°F19.0°C 92% Calm Calm -- 30.12 in1020.0 mb 0.00 in0.0 mm 0.00 in0.0 mm 0.12 in3.0 mm
07:30 AM 68.2°F20.1°C 66.2°F19.0°C 92% Calm Calm -- 30.15 in1021.0 mb 0.00 in0.0 mm 0.00 in0.0 mm 0.12 in3.0 mm
07:35 AM 67.8°F19.9°C 66.2°F19.0°C 95% Calm Calm -- 30.15 in1021.0 mb 0.00 in0.0 mm 0.00 in0.0 mm 0.12 in3.0 mm
07:40 AM 67.8°F19.9°C 66.2°F19.0°C 95% Calm Calm 0.9 mph1.4 kmh 30.15 in1021.0 mb 0.00 in0.0 mm 0.00 in0.0 mm 0.12 in3.0 mm
07:45 AM 67.8°F19.9°C 66.2°F19.0°C 95% Calm Calm 0.9 mph1.4 kmh 30.15 in1021.0 mb 0.00 in0.0 mm 0.00 in0.0 mm 0.12 in3.0 mm
07:50 AM 68.0°F20.0°C 66.2°F19.0°C 94% Calm Calm 0.9 mph1.4 kmh 30.15 in1021.0 mb 0.00 in0.0 mm 0.00 in0.0 mm 0.12 in3.0 mm
07:55 AM 68.0°F20.0°C 66.2°F19.0°C 94% Calm Calm 0.9 mph1.4 kmh 30.15 in1021.0 mb 0.00 in0.0 mm 0.00 in0.0 mm 0.12 in3.0 mm
08:00 AM 68.0°F20.0°C 66.2°F19.0°C 94% Calm Calm -- 30.15 in1021.0 mb 0.00 in0.0 mm 0.00 in0.0 mm 0.12 in3.0 mm
08:05 AM 68.0°F20.0°C 66.2°F19.0°C 94% Calm Calm -- 30.15 in1021.0 mb 0.00 in0.0 mm 0.00 in0.0 mm 0.12 in3.0 mm
08:10 AM 68.0°F20.0°C 66.2°F19.0°C 94% Calm Calm -- 30.15 in1021.0 mb 0.00 in0.0 mm 0.00 in0.0 mm 0.12 in3.0 mm
08:15 AM 68.0°F20.0°C 66.2°F19.0°C 94% Calm Calm -- 30.15 in1021.0 mb 0.00 in0.0 mm 0.00 in0.0 mm 0.12 in3.0 mm
08:20 AM 68.0°F20.0°C 66.2°F19.0°C 94% Calm Calm -- 30.15 in1021.0 mb 0.04 in1.0 mm 0.48 in12.2 mm 0.16 in4.1 mm
08:25 AM 68.0°F20.0°C 66.2°F19.0°C 94% Calm Calm -- 30.15 in1021.0 mb 0.04 in1.0 mm 0.00 in0.0 mm 0.16 in4.1 mm
08:30 AM 68.0°F20.0°C 66.2°F19.0°C 94% Calm Calm -- 30.15 in1021.0 mb 0.08 in2.0 mm 0.48 in12.2 mm 0.20 in5.1 mm
08:35 AM 68.0°F20.0°C 66.2°F19.0°C 94% Calm Calm -- 30.15 in1021.0 mb 0.12 in3.0 mm 0.48 in12.2 mm 0.24 in6.1 mm
08:40 AM 68.0°F20.0°C 66.2°F19.0°C 94% Calm Calm -- 30.15 in1021.0 mb 0.17 in4.3 mm 0.60 in15.2 mm 0.29 in7.4 mm
08:45 AM 68.0°F20.0°C 66.2°F19.0°C 94% Calm Calm -- 30.15 in1021.0 mb 0.21 in5.3 mm 0.48 in12.2 mm 0.33 in8.4 mm
08:50 AM 67.8°F19.9°C 66.2°F19.0°C 95% Calm Calm 1.1 mph1.8 kmh 30.15 in1021.0 mb 0.25 in6.4 mm 0.48 in12.2 mm 0.37 in9.4 mm
08:55 AM 67.6°F19.8°C 66.2°F19.0°C 95% Calm Calm 2.0 mph3.2 kmh 30.15 in1021.0 mb 0.25 in6.4 mm 0.00 in0.0 mm 0.37 in9.4 mm
09:00 AM 67.8°F19.9°C 66.2°F19.0°C 95% Calm Calm 2.0 mph3.2 kmh 30.15 in1021.0 mb 0.25 in6.4 mm 0.00 in0.0 mm 0.37 in9.4 mm
09:05 AM 67.8°F19.9°C 68.0°F20.0°C 96% Calm Calm 1.1 mph1.8 kmh 30.15 in1021.0 mb 0.25 in6.4 mm 0.00 in0.0 mm 0.37 in9.4 mm
09:10 AM 67.8°F19.9°C 68.0°F20.0°C 96% Calm Calm 1.1 mph1.8 kmh 30.15 in1021.0 mb 0.29 in7.4 mm 0.48 in12.2 mm 0.41 in10.4 mm
09:15 AM 68.0°F20.0°C 66.2°F19.0°C 95% Calm Calm 1.1 mph1.8 kmh 30.15 in1021.0 mb 0.29 in7.4 mm 0.00 in0.0 mm 0.41 in10.4 mm
09:20 AM 68.0°F20.0°C 66.2°F19.0°C 95% Calm Calm 1.1 mph1.8 kmh 30.15 in1021.0 mb 0.25 in6.4 mm 0.00 in0.0 mm 0.41 in10.4 mm
09:25 AM 68.2°F20.1°C 66.2°F19.0°C 95% Calm Calm -- 30.15 in1021.0 mb 0.25 in6.4 mm 0.00 in0.0 mm 0.41 in10.4 mm
09:30 AM 68.4°F20.2°C 68.0°F20.0°C 95% Calm Calm -- 30.15 in1021.0 mb 0.21 in5.3 mm 0.00 in0.0 mm 0.41 in10.4 mm
09:35 AM 68.5°F20.3°C 68.0°F20.0°C 95% Calm Calm -- 30.15 in1021.0 mb 0.17 in4.3 mm 0.00 in0.0 mm 0.41 in10.4 mm
09:40 AM 68.4°F20.2°C 68.0°F20.0°C 95% 1.3 mph SSW2.1 kmh SSW 2.2 mph3.5 kmh 30.15 in1021.0 mb 0.12 in3.0 mm 0.00 in0.0 mm 0.41 in10.4 mm
09:45 AM 68.4°F20.2°C 68.0°F20.0°C 95% Calm Calm 2.2 mph3.5 kmh 30.15 in1021.0 mb 0.08 in2.0 mm 0.00 in0.0 mm 0.41 in10.4 mm
09:50 AM 68.5°F20.3°C 68.0°F20.0°C 95% Calm Calm -- 30.15 in1021.0 mb 0.04 in1.0 mm 0.00 in0.0 mm 0.41 in10.4 mm
09:55 AM 68.5°F20.3°C 68.0°F20.0°C 95% Calm Calm -- 30.15 in1021.0 mb 0.04 in1.0 mm 0.00 in0.0 mm 0.41 in10.4 mm
10:00 AM 68.7°F20.4°C 68.0°F20.0°C 95% Calm Calm -- 30.15 in1021.0 mb 0.04 in1.0 mm 0.00 in0.0 mm 0.41 in10.4 mm
10:05 AM 68.9°F20.5°C 68.0°F20.0°C 94% Calm Calm 1.1 mph1.8 kmh 30.15 in1021.0 mb 0.04 in1.0 mm 0.00 in0.0 mm 0.41 in10.4 mm
10:10 AM 69.3°F20.7°C 68.0°F20.0°C 95% Calm Calm 1.6 mph2.6 kmh 30.15 in1021.0 mb 0.04 in1.0 mm 0.00 in0.0 mm 0.45 in11.4 mm
10:15 AM 69.4°F20.8°C 68.0°F20.0°C 95% Calm Calm 1.6 mph2.6 kmh 30.15 in1021.0 mb 0.04 in1.0 mm 0.00 in0.0 mm 0.45 in11.4 mm
10:20 AM 69.8°F21.0°C 68.0°F20.0°C 95% Calm Calm 1.3 mph2.1 kmh 30.15 in1021.0 mb 0.04 in1.0 mm 0.00 in0.0 mm 0.45 in11.4 mm
10:25 AM 70.3°F21.3°C 69.8°F21.0°C 95% Calm Calm 1.3 mph2.1 kmh 30.15 in1021.0 mb 0.04 in1.0 mm 0.00 in0.0 mm 0.45 in11.4 mm
10:30 AM 70.5°F21.4°C 68.0°F20.0°C 94% Calm Calm 2.2 mph3.5 kmh 30.15 in1021.0 mb 0.04 in1.0 mm 0.00 in0.0 mm 0.45 in11.4 mm
10:35 AM 70.5°F21.4°C 68.0°F20.0°C 94% Calm Calm 2.2 mph3.5 kmh 30.15 in1021.0 mb 0.04 in1.0 mm 0.00 in0.0 mm 0.45 in11.4 mm
10:40 AM 70.5°F21.4°C 68.0°F20.0°C 94% 1.3 mph S2.1 kmh S 2.0 mph3.2 kmh 30.15 in1021.0 mb 0.04 in1.0 mm 0.00 in0.0 mm 0.45 in11.4 mm
10:45 AM 70.5°F21.4°C 68.0°F20.0°C 94% Calm Calm 2.0 mph3.2 kmh 30.15 in1021.0 mb 0.04 in1.0 mm 0.00 in0.0 mm 0.45 in11.4 mm
10:50 AM 72.1°F22.3°C 69.8°F21.0°C 91% 1.3 mph SSE2.1 kmh SSE 2.0 mph3.2 kmh 30.15 in1021.0 mb 0.04 in1.0 mm 0.00 in0.0 mm 0.45 in11.4 mm
10:55 AM 72.3°F22.4°C 68.0°F20.0°C 88% 1.3 mph SSE2.1 kmh SSE 2.5 mph4.0 kmh 30.15 in1021.0 mb 0.04 in1.0 mm 0.00 in0.0 mm 0.45 in11.4 mm
11:00 AM 72.5°F22.5°C 69.8°F21.0°C 88% 0.9 mph SSE1.4 kmh SSE 2.5 mph4.0 kmh 30.15 in1021.0 mb 0.04 in1.0 mm 0.00 in0.0 mm 0.45 in11.4 mm
11:05 AM 72.9°F22.7°C 69.8°F21.0°C 89% Calm Calm 2.2 mph3.5 kmh 30.15 in1021.0 mb 0.04 in1.0 mm 0.00 in0.0 mm 0.45 in11.4 mm
11:10 AM 72.7°F22.6°C 69.8°F21.0°C 88% 1.1 mph SSE1.8 kmh SSE 2.7 mph4.3 kmh 30.15 in1021.0 mb 0.00 in0.0 mm 0.00 in0.0 mm 0.45 in11.4 mm
11:15 AM 73.0°F22.8°C 69.8°F21.0°C 88% Calm Calm 2.7 mph4.3 kmh 30.15 in1021.0 mb 0.00 in0.0 mm 0.00 in0.0 mm 0.45 in11.4 mm
11:20 AM 73.2°F22.9°C 69.8°F21.0°C 87% Calm Calm 2.7 mph4.3 kmh 30.15 in1021.0 mb 0.00 in0.0 mm 0.00 in0.0 mm 0.45 in11.4 mm
11:25 AM 73.2°F22.9°C 69.8°F21.0°C 87% Calm Calm 2.7 mph4.3 kmh 30.15 in1021.0 mb 0.00 in0.0 mm 0.00 in0.0 mm 0.45 in11.4 mm
11:30 AM 73.2°F22.9°C 69.8°F21.0°C 86% Calm Calm 0.9 mph1.4 kmh 30.15 in1021.0 mb 0.00 in0.0 mm 0.00 in0.0 mm 0.45 in11.4 mm
11:35 AM 73.8°F23.2°C 69.8°F21.0°C 86% Calm Calm -- 30.15 in1021.0 mb 0.00 in0.0 mm 0.00 in0.0 mm 0.45 in11.4 mm
11:40 AM 74.1°F23.4°C 69.8°F21.0°C 86% Calm Calm -- 30.15 in1021.0 mb 0.00 in0.0 mm 0.00 in0.0 mm 0.45 in11.4 mm
11:45 AM 74.1°F23.4°C 69.8°F21.0°C 86% Calm Calm -- 30.15 in1021.0 mb 0.00 in0.0 mm 0.00 in0.0 mm 0.45 in11.4 mm
11:50 AM 74.1°F23.4°C 69.8°F21.0°C 86% Calm Calm -- 30.15 in1021.0 mb 0.00 in0.0 mm 0.00 in0.0 mm 0.45 in11.4 mm
11:55 AM 74.1°F23.4°C 69.8°F21.0°C 86% 1.1 mph SW1.8 kmh SW 2.0 mph3.2 kmh 30.15 in1021.0 mb 0.00 in0.0 mm 0.00 in0.0 mm 0.45 in11.4 mm
12:00 PM 74.1°F23.4°C 69.8°F21.0°C 86% Calm Calm 2.0 mph3.2 kmh 30.15 in1021.0 mb 0.00 in0.0 mm 0.00 in0.0 mm 0.45 in11.4 mm
12:05 PM 74.1°F23.4°C 69.8°F21.0°C 86% Calm Calm 2.0 mph3.2 kmh 30.15 in1021.0 mb 0.00 in0.0 mm 0.00 in0.0 mm 0.45 in11.4 mm
12:10 PM 74.1°F23.4°C 69.8°F21.0°C 86% Calm Calm 2.9 mph4.7 kmh 30.15 in1021.0 mb 0.00 in0.0 mm 0.00 in0.0 mm 0.45 in11.4 mm
12:15 PM 74.1°F23.4°C 69.8°F21.0°C 86% Calm Calm 2.9 mph4.7 kmh 30.15 in1021.0 mb 0.00 in0.0 mm 0.00 in0.0 mm 0.45 in11.4 mm
12:20 PM 74.1°F23.4°C 69.8°F21.0°C 86% Calm Calm 1.6 mph2.6 kmh 30.15 in1021.0 mb 0.00 in0.0 mm 0.00 in0.0 mm 0.45 in11.4 mm
12:25 PM 74.1°F23.4°C 69.8°F21.0°C 86% Calm Calm 2.7 mph4.3 kmh 30.15 in1021.0 mb 0.00 in0.0 mm 0.00 in0.0 mm 0.45 in11.4 mm
12:30 PM 74.1°F23.4°C 69.8°F21.0°C 86% 1.3 mph SE2.1 kmh SE 2.7 mph4.3 kmh 30.15 in1021.0 mb 0.00 in0.0 mm 0.00 in0.0 mm 0.45 in11.4 mm
12:35 PM 74.1°F23.4°C 69.8°F21.0°C 86% 0.9 mph E1.4 kmh E 3.1 mph5.0 kmh 30.15 in1021.0 mb 0.00 in0.0 mm 0.00 in0.0 mm 0.45 in11.4 mm
12:40 PM 74.1°F23.4°C 69.8°F21.0°C 86% Calm Calm 3.1 mph5.0 kmh 30.15 in1021.0 mb 0.00 in0.0 mm 0.00 in0.0 mm 0.45 in11.4 mm
12:45 PM 74.1°F23.4°C 69.8°F21.0°C 86% Calm Calm 3.1 mph5.0 kmh 30.15 in1021.0 mb 0.00 in0.0 mm 0.00 in0.0 mm 0.45 in11.4 mm
12:50 PM 74.1°F23.4°C 69.8°F21.0°C 86% Calm Calm 4.0 mph6.4 kmh 30.15 in1021.0 mb 0.00 in0.0 mm 0.00 in0.0 mm 0.45 in11.4 mm
12:55 PM 74.1°F23.4°C 69.8°F21.0°C 86% 1.6 mph ESE2.6 kmh ESE 4.0 mph6.4 kmh 30.15 in1021.0 mb 0.00 in0.0 mm 0.00 in0.0 mm 0.45 in11.4 mm
01:00 PM 74.1°F23.4°C 69.8°F21.0°C 86% 1.3 mph E2.1 kmh E 3.4 mph5.5 kmh 30.15 in1021.0 mb 0.00 in0.0 mm 0.00 in0.0 mm 0.45 in11.4 mm
01:05 PM 74.1°F23.4°C 69.8°F21.0°C 86% 2.0 mph E3.2 kmh E 3.6 mph5.8 kmh 30.15 in1021.0 mb 0.00 in0.0 mm 0.00 in0.0 mm 0.45 in11.4 mm
01:10 PM 74.1°F23.4°C 69.8°F21.0°C 86% 0.9 mph ENE1.4 kmh ENE 3.8 mph6.1 kmh 30.15 in1021.0 mb 0.00 in0.0 mm 0.00 in0.0 mm 0.45 in11.4 mm
01:15 PM 74.1°F23.4°C 69.8°F21.0°C 86% Calm Calm 3.8 mph6.1 kmh 30.15 in1021.0 mb 0.00 in0.0 mm 0.00 in0.0 mm 0.45 in11.4 mm
01:20 PM 74.1°F23.4°C 69.8°F21.0°C 86% 2.9 mph E4.7 kmh E 3.8 mph6.1 kmh 30.15 in1021.0 mb 0.00 in0.0 mm 0.00 in0.0 mm 0.45 in11.4 mm
01:25 PM 74.1°F23.4°C 69.8°F21.0°C 86% 2.0 mph E3.2 kmh E 3.8 mph6.1 kmh 30.15 in1021.0 mb 0.00 in0.0 mm 0.00 in0.0 mm 0.45 in11.4 mm
01:30 PM 74.1°F23.4°C 69.8°F21.0°C 86% 1.6 mph E2.6 kmh E 3.8 mph6.1 kmh 30.15 in1021.0 mb 0.00 in0.0 mm 0.00 in0.0 mm 0.45 in11.4 mm
01:35 PM 74.1°F23.4°C 69.8°F21.0°C 86% 2.0 mph E3.2 kmh E 3.6 mph5.8 kmh 30.15 in1021.0 mb 0.00 in0.0 mm 0.00 in0.0 mm 0.45 in11.4 mm
01:40 PM 74.1°F23.4°C 69.8°F21.0°C 86% 1.3 mph ESE2.1 kmh ESE 3.6 mph5.8 kmh 30.15 in1021.0 mb 0.00 in0.0 mm 0.00 in0.0 mm 0.45 in11.4 mm
01:45 PM 74.1°F23.4°C 69.8°F21.0°C 86% 1.3 mph SE2.1 kmh SE 3.6 mph5.8 kmh 30.12 in1020.0 mb 0.00 in0.0 mm 0.00 in0.0 mm 0.45 in11.4 mm
01:50 PM 74.1°F23.4°C 69.8°F21.0°C 86% 1.1 mph ESE1.8 kmh ESE 3.1 mph5.0 kmh 30.12 in1020.0 mb 0.00 in0.0 mm 0.00 in0.0 mm 0.45 in11.4 mm
01:55 PM 74.1°F23.4°C 69.8°F21.0°C 86% 0.9 mph E1.4 kmh E 3.1 mph5.0 kmh 30.12 in1020.0 mb 0.00 in0.0 mm 0.00 in0.0 mm 0.45 in11.4 mm
02:00 PM 74.1°F23.4°C 69.8°F21.0°C 86% 1.6 mph E2.6 kmh E 4.7 mph7.6 kmh 30.15 in1021.0 mb 0.00 in0.0 mm 0.00 in0.0 mm 0.45 in11.4 mm
02:05 PM 74.1°F23.4°C 69.8°F21.0°C 86% 1.3 mph ENE2.1 kmh ENE 4.7 mph7.6 kmh 30.15 in1021.0 mb 0.00 in0.0 mm 0.00 in0.0 mm 0.45 in11.4 mm
02:10 PM 74.1°F23.4°C 69.8°F21.0°C 86% 1.6 mph NE2.6 kmh NE 3.8 mph6.1 kmh 30.15 in1021.0 mb 0.00 in0.0 mm 0.00 in0.0 mm 0.45 in11.4 mm
02:15 PM 74.1°F23.4°C 69.8°F21.0°C 86% 1.1 mph NE1.8 kmh NE 4.7 mph7.6 kmh 30.12 in1020.0 mb 0.00 in0.0 mm 0.00 in0.0 mm 0.45 in11.4 mm
02:20 PM 74.1°F23.4°C 69.8°F21.0°C 86% 2.0 mph ENE3.2 kmh ENE 4.7 mph7.6 kmh 30.12 in1020.0 mb 0.00 in0.0 mm 0.00 in0.0 mm 0.45 in11.4 mm
02:25 PM 74.1°F23.4°C 69.8°F21.0°C 86% 1.3 mph E2.1 kmh E 5.8 mph9.3 kmh 30.12 in1020.0 mb 0.00 in0.0 mm 0.00 in0.0 mm 0.45 in11.4 mm
02:30 PM 74.1°F23.4°C 69.8°F21.0°C 86% 0.9 mph E1.4 kmh E 5.8 mph9.3 kmh 30.12 in1020.0 mb 0.00 in0.0 mm 0.00 in0.0 mm 0.45 in11.4 mm
02:35 PM 74.1°F23.4°C 69.8°F21.0°C 86% 2.2 mph E3.5 kmh E 4.0 mph6.4 kmh 30.12 in1020.0 mb 0.00 in0.0 mm 0.00 in0.0 mm 0.45 in11.4 mm
02:40 PM 74.1°F23.4°C 69.8°F21.0°C 86% 1.6 mph ENE2.6 kmh ENE 3.6 mph5.8 kmh 30.12 in1020.0 mb 0.00 in0.0 mm 0.00 in0.0 mm 0.45 in11.4 mm
02:45 PM 74.1°F23.4°C 69.8°F21.0°C 86% Calm Calm 3.4 mph5.5 kmh 30.15 in1021.0 mb 0.00 in0.0 mm 0.00 in0.0 mm 0.45 in11.4 mm
02:50 PM 74.1°F23.4°C 69.8°F21.0°C 86% 1.6 mph E2.6 kmh E 2.9 mph4.7 kmh 30.15 in1021.0 mb 0.00 in0.0 mm 0.00 in0.0 mm 0.45 in11.4 mm
02:55 PM 74.1°F23.4°C 69.8°F21.0°C 86% 1.3 mph E2.1 kmh E 3.1 mph5.0 kmh 30.15 in1021.0 mb 0.00 in0.0 mm 0.00 in0.0 mm 0.45 in11.4 mm
03:00 PM 74.1°F23.4°C 69.8°F21.0°C 86% 1.3 mph E2.1 kmh E 3.8 mph6.1 kmh 30.15 in1021.0 mb 0.00 in0.0 mm 0.00 in0.0 mm 0.45 in11.4 mm
03:05 PM 74.1°F23.4°C 69.8°F21.0°C 86% Calm Calm 3.8 mph6.1 kmh 30.15 in1021.0 mb 0.00 in0.0 mm 0.00 in0.0 mm 0.45 in11.4 mm
03:10 PM 74.1°F23.4°C 69.8°F21.0°C 86% 3.1 mph E5.0 kmh E 3.6 mph5.8 kmh 30.15 in1021.0 mb 0.00 in0.0 mm 0.00 in0.0 mm 0.45 in11.4 mm
03:15 PM 74.1°F23.4°C 69.8°F21.0°C 86% 1.6 mph E2.6 kmh E 3.6 mph5.8 kmh 30.15 in1021.0 mb 0.00 in0.0 mm 0.00 in0.0 mm 0.45 in11.4 mm
03:20 PM 74.1°F23.4°C 69.8°F21.0°C 86% 1.1 mph ESE1.8 kmh ESE 2.9 mph4.7 kmh 30.15 in1021.0 mb 0.00 in0.0 mm 0.00 in0.0 mm 0.45 in11.4 mm
03:25 PM 74.1°F23.4°C 69.8°F21.0°C 86% Calm Calm 2.7 mph4.3 kmh 30.15 in1021.0 mb 0.00 in0.0 mm 0.00 in0.0 mm 0.45 in11.4 mm
03:30 PM 74.1°F23.4°C 69.8°F21.0°C 86% 1.3 mph ESE2.1 kmh ESE 3.1 mph5.0 kmh 30.15 in1021.0 mb 0.00 in0.0 mm 0.00 in0.0 mm 0.45 in11.4 mm
03:35 PM 74.1°F23.4°C 69.8°F21.0°C 86% Calm Calm 3.1 mph5.0 kmh 30.15 in1021.0 mb 0.00 in0.0 mm 0.00 in0.0 mm 0.45 in11.4 mm
03:40 PM 74.1°F23.4°C 69.8°F21.0°C 86% Calm Calm 3.1 mph5.0 kmh 30.15 in1021.0 mb 0.00 in0.0 mm 0.00 in0.0 mm 0.45 in11.4 mm
03:45 PM 74.1°F23.4°C 69.8°F21.0°C 86% 2.2 mph E3.5 kmh E 3.4 mph5.5 kmh 30.15 in1021.0 mb 0.00 in0.0 mm 0.00 in0.0 mm 0.45 in11.4 mm
03:50 PM 74.1°F23.4°C 69.8°F21.0°C 86% Calm Calm 3.4 mph5.5 kmh 30.15 in1021.0 mb 0.00 in0.0 mm 0.00 in0.0 mm 0.45 in11.4 mm
03:55 PM 74.1°F23.4°C 69.8°F21.0°C 86% 1.1 mph E1.8 kmh E 3.1 mph5.0 kmh 30.15 in1021.0 mb 0.00 in0.0 mm 0.00 in0.0 mm 0.45 in11.4 mm
04:00 PM 74.1°F23.4°C 69.8°F21.0°C 86% Calm Calm 4.0 mph6.4 kmh 30.15 in1021.0 mb 0.00 in0.0 mm 0.00 in0.0 mm 0.45 in11.4 mm
04:05 PM 82.4°F28.0°C 69.8°F21.0°C 65% 2.0 mph N3.2 kmh N 4.0 mph6.4 kmh 30.15 in1021.0 mb 0.00 in0.0 mm 0.00 in0.0 mm 0.45 in11.4 mm
04:10 PM 83.3°F28.5°C 69.8°F21.0°C 63% 2.5 mph NE4.0 kmh NE 3.8 mph6.1 kmh 30.15 in1021.0 mb 0.00 in0.0 mm 0.00 in0.0 mm 0.45 in11.4 mm
04:15 PM 82.9°F28.3°C 69.8°F21.0°C 62% Calm Calm 3.8 mph6.1 kmh 30.15 in1021.0 mb 0.00 in0.0 mm 0.00 in0.0 mm 0.45 in11.4 mm
04:20 PM 82.6°F28.1°C 68.0°F20.0°C 62% Calm Calm 1.3 mph2.1 kmh 30.15 in1021.0 mb 0.00 in0.0 mm 0.00 in0.0 mm 0.45 in11.4 mm
04:25 PM 81.5°F27.5°C 68.0°F20.0°C 60% Calm Calm 1.6 mph2.6 kmh 30.15 in1021.0 mb 0.00 in0.0 mm 0.00 in0.0 mm 0.45 in11.4 mm
04:30 PM 81.1°F27.3°C 68.0°F20.0°C 62% 0.9 mph ENE1.4 kmh ENE 1.6 mph2.6 kmh 30.15 in1021.0 mb 0.00 in0.0 mm 0.00 in0.0 mm 0.45 in11.4 mm
04:35 PM 80.8°F27.1°C 66.2°F19.0°C 62% 2.0 mph E3.2 kmh E 3.4 mph5.5 kmh 30.12 in1020.0 mb 0.00 in0.0 mm 0.00 in0.0 mm 0.45 in11.4 mm
04:40 PM 80.4°F26.9°C 68.0°F20.0°C 65% 1.1 mph NE1.8 kmh NE 3.4 mph5.5 kmh 30.12 in1020.0 mb 0.00 in0.0 mm 0.00 in0.0 mm 0.45 in11.4 mm
04:45 PM 79.7°F26.5°C 68.0°F20.0°C 65% 2.2 mph E3.5 kmh E 4.7 mph7.6 kmh 30.12 in1020.0 mb 0.00 in0.0 mm 0.00 in0.0 mm 0.45 in11.4 mm
04:50 PM 79.3°F26.3°C 68.0°F20.0°C 65% 2.5 mph E4.0 kmh E 4.9 mph7.9 kmh 30.12 in1020.0 mb 0.00 in0.0 mm 0.00 in0.0 mm 0.45 in11.4 mm
04:55 PM 79.5°F26.4°C 68.0°F20.0°C 66% 3.4 mph E5.5 kmh E 4.9 mph7.9 kmh 30.12 in1020.0 mb 0.00 in0.0 mm 0.00 in0.0 mm 0.45 in11.4 mm
05:00 PM 80.2°F26.8°C 69.8°F21.0°C 68% Calm Calm 4.0 mph6.4 kmh 30.12 in1020.0 mb 0.00 in0.0 mm 0.00 in0.0 mm 0.45 in11.4 mm
05:05 PM 80.2°F26.8°C 68.0°F20.0°C 67% Calm Calm 2.7 mph4.3 kmh 30.12 in1020.0 mb 0.00 in0.0 mm 0.00 in0.0 mm 0.45 in11.4 mm
05:10 PM 79.9°F26.6°C 68.0°F20.0°C 67% Calm Calm 2.7 mph4.3 kmh 30.12 in1020.0 mb 0.00 in0.0 mm 0.00 in0.0 mm 0.45 in11.4 mm
05:15 PM 79.7°F26.5°C 69.8°F21.0°C 69% 1.3 mph E2.1 kmh E 3.8 mph6.1 kmh 30.12 in1020.0 mb 0.00 in0.0 mm 0.00 in0.0 mm 0.45 in11.4 mm
05:20 PM 79.0°F26.1°C 68.0°F20.0°C 67% Calm Calm 4.3 mph6.9 kmh 30.12 in1020.0 mb 0.00 in0.0 mm 0.00 in0.0 mm 0.45 in11.4 mm
05:25 PM 79.2°F26.2°C 68.0°F20.0°C 68% Calm Calm 4.3 mph6.9 kmh 30.12 in1020.0 mb 0.00 in0.0 mm 0.00 in0.0 mm 0.45 in11.4 mm
05:30 PM 79.2°F26.2°C 68.0°F20.0°C 69% Calm Calm 2.5 mph4.0 kmh 30.12 in1020.0 mb 0.00 in0.0 mm 0.00 in0.0 mm 0.45 in11.4 mm
05:35 PM 79.3°F26.3°C 68.0°F20.0°C 68% Calm Calm 2.5 mph4.0 kmh 30.12 in1020.0 mb 0.00 in0.0 mm 0.00 in0.0 mm 0.45 in11.4 mm
05:40 PM 79.2°F26.2°C 68.0°F20.0°C 69% Calm Calm 2.5 mph4.0 kmh 30.12 in1020.0 mb 0.00 in0.0 mm 0.00 in0.0 mm 0.45 in11.4 mm
05:45 PM 78.8°F26.0°C 68.0°F20.0°C 69% Calm Calm 1.1 mph1.8 kmh 30.12 in1020.0 mb 0.00 in0.0 mm 0.00 in0.0 mm 0.45 in11.4 mm
05:50 PM 78.1°F25.6°C 68.0°F20.0°C 69% 0.9 mph E1.4 kmh E 2.9 mph4.7 kmh 30.12 in1020.0 mb 0.00 in0.0 mm 0.00 in0.0 mm 0.45 in11.4 mm
05:55 PM 77.9°F25.5°C 68.0°F20.0°C 70% Calm Calm 2.9 mph4.7 kmh 30.12 in1020.0 mb 0.00 in0.0 mm 0.00 in0.0 mm 0.45 in11.4 mm
06:00 PM 77.7°F25.4°C 68.0°F20.0°C 71% Calm Calm 2.0 mph3.2 kmh 30.12 in1020.0 mb 0.00 in0.0 mm 0.00 in0.0 mm 0.45 in11.4 mm
06:05 PM 77.9°F25.5°C 68.0°F20.0°C 71% Calm Calm 2.0 mph3.2 kmh 30.12 in1020.0 mb 0.00 in0.0 mm 0.00 in0.0 mm 0.45 in11.4 mm
06:10 PM 77.9°F25.5°C 69.8°F21.0°C 72% Calm Calm 3.1 mph5.0 kmh 30.12 in1020.0 mb 0.00 in0.0 mm 0.00 in0.0 mm 0.45 in11.4 mm
06:15 PM 77.9°F25.5°C 68.0°F20.0°C 71% 1.6 mph E2.6 kmh E 3.4 mph5.5 kmh 30.12 in1020.0 mb 0.00 in0.0 mm 0.00 in0.0 mm 0.45 in11.4 mm
06:20 PM 77.5°F25.3°C 68.0°F20.0°C 72% Calm Calm 3.4 mph5.5 kmh 30.12 in1020.0 mb 0.00 in0.0 mm 0.00 in0.0 mm 0.45 in11.4 mm
06:25 PM 77.4°F25.2°C 68.0°F20.0°C 71% Calm Calm 1.6 mph2.6 kmh 30.12 in1020.0 mb 0.00 in0.0 mm 0.00 in0.0 mm 0.45 in11.4 mm
06:30 PM 77.0°F25.0°C 68.0°F20.0°C 72% Calm Calm 1.6 mph2.6 kmh 30.12 in1020.0 mb 0.00 in0.0 mm 0.00 in0.0 mm 0.45 in11.4 mm
06:35 PM 77.0°F25.0°C 68.0°F20.0°C 73% Calm Calm 1.6 mph2.6 kmh 30.12 in1020.0 mb 0.00 in0.0 mm 0.00 in0.0 mm 0.45 in11.4 mm
06:40 PM 77.0°F25.0°C 68.0°F20.0°C 72% Calm Calm -- 30.12 in1020.0 mb 0.00 in0.0 mm 0.00 in0.0 mm 0.45 in11.4 mm
06:45 PM 77.4°F25.2°C 68.0°F20.0°C 73% Calm Calm 1.6 mph2.6 kmh 30.12 in1020.0 mb 0.00 in0.0 mm 0.00 in0.0 mm 0.45 in11.4 mm
06:50 PM 77.2°F25.1°C 68.0°F20.0°C 73% Calm Calm 1.6 mph2.6 kmh 30.09 in1019.0 mb 0.00 in0.0 mm 0.00 in0.0 mm 0.45 in11.4 mm
06:55 PM 77.0°F25.0°C 68.0°F20.0°C 73% Calm Calm 0.9 mph1.4 kmh 30.09 in1019.0 mb 0.00 in0.0 mm 0.00 in0.0 mm 0.45 in11.4 mm
07:00 PM 77.0°F25.0°C 68.0°F20.0°C 73% Calm Calm 2.9 mph4.7 kmh 30.09 in1019.0 mb 0.00 in0.0 mm 0.00 in0.0 mm 0.45 in11.4 mm
07:05 PM 77.2°F25.1°C 68.0°F20.0°C 73% Calm Calm 2.9 mph4.7 kmh 30.12 in1020.0 mb 0.00 in0.0 mm 0.00 in0.0 mm 0.45 in11.4 mm
07:10 PM 77.0°F25.0°C 68.0°F20.0°C 73% Calm Calm 2.2 mph3.5 kmh 30.12 in1020.0 mb 0.00 in0.0 mm 0.00 in0.0 mm 0.45 in11.4 mm
07:15 PM 77.0°F25.0°C 68.0°F20.0°C 73% Calm Calm 1.6 mph2.6 kmh 30.12 in1020.0 mb 0.00 in0.0 mm 0.00 in0.0 mm 0.45 in11.4 mm
07:20 PM 76.6°F24.8°C 68.0°F20.0°C 74% Calm Calm 1.6 mph2.6 kmh 30.12 in1020.0 mb 0.00 in0.0 mm 0.00 in0.0 mm 0.45 in11.4 mm
07:25 PM 76.5°F24.7°C 68.0°F20.0°C 74% Calm Calm 1.6 mph2.6 kmh 30.12 in1020.0 mb 0.00 in0.0 mm 0.00 in0.0 mm 0.45 in11.4 mm
07:30 PM 76.5°F24.7°C 68.0°F20.0°C 75% Calm Calm 1.6 mph2.6 kmh 30.12 in1020.0 mb 0.00 in0.0 mm 0.00 in0.0 mm 0.45 in11.4 mm
07:35 PM 76.3°F24.6°C 68.0°F20.0°C 75% Calm Calm -- 30.12 in1020.0 mb 0.00 in0.0 mm 0.00 in0.0 mm 0.45 in11.4 mm
07:40 PM 76.3°F24.6°C 68.0°F20.0°C 74% Calm Calm -- 30.12 in1020.0 mb 0.00 in0.0 mm 0.00 in0.0 mm 0.45 in11.4 mm
07:45 PM 76.1°F24.5°C 68.0°F20.0°C 74% Calm Calm -- 30.12 in1020.0 mb 0.00 in0.0 mm 0.00 in0.0 mm 0.45 in11.4 mm
07:50 PM 75.9°F24.4°C 68.0°F20.0°C 75% Calm Calm -- 30.12 in1020.0 mb 0.00 in0.0 mm 0.00 in0.0 mm 0.45 in11.4 mm
07:55 PM 75.7°F24.3°C 68.0°F20.0°C 75% Calm Calm -- 30.12 in1020.0 mb 0.00 in0.0 mm 0.00 in0.0 mm 0.45 in11.4 mm
08:00 PM 75.7°F24.3°C 68.0°F20.0°C 75% Calm Calm -- 30.12 in1020.0 mb 0.00 in0.0 mm 0.00 in0.0 mm 0.45 in11.4 mm
08:05 PM 75.6°F24.2°C 68.0°F20.0°C 75% Calm Calm -- 30.12 in1020.0 mb 0.00 in0.0 mm 0.00 in0.0 mm 0.45 in11.4 mm
08:10 PM 75.4°F24.1°C 68.0°F20.0°C 75% Calm Calm -- 30.12 in1020.0 mb 0.00 in0.0 mm 0.00 in0.0 mm 0.45 in11.4 mm
08:15 PM 74.8°F23.8°C 66.2°F19.0°C 76% Calm Calm -- 30.12 in1020.0 mb 0.00 in0.0 mm 0.00 in0.0 mm 0.45 in11.4 mm
08:20 PM 74.5°F23.6°C 66.2°F19.0°C 76% Calm Calm -- 30.12 in1020.0 mb 0.00 in0.0 mm 0.00 in0.0 mm 0.45 in11.4 mm
08:25 PM 74.1°F23.4°C 66.2°F19.0°C 76% 0.9 mph ENE1.4 kmh ENE 1.1 mph1.8 kmh 30.12 in1020.0 mb 0.00 in0.0 mm 0.00 in0.0 mm 0.45 in11.4 mm
08:30 PM 73.8°F23.2°C 66.2°F19.0°C 77% Calm Calm 1.3 mph2.1 kmh 30.12 in1020.0 mb 0.00 in0.0 mm 0.00 in0.0 mm 0.45 in11.4 mm
08:35 PM 73.2°F22.9°C 66.2°F19.0°C 79% Calm Calm 1.3 mph2.1 kmh 30.09 in1019.0 mb 0.00 in0.0 mm 0.00 in0.0 mm 0.45 in11.4 mm
08:40 PM 72.9°F22.7°C 66.2°F19.0°C 80% Calm Calm -- 30.09 in1019.0 mb 0.00 in0.0 mm 0.00 in0.0 mm 0.45 in11.4 mm
08:45 PM 72.5°F22.5°C 66.2°F19.0°C 81% Calm Calm -- 30.09 in1019.0 mb 0.00 in0.0 mm 0.00 in0.0 mm 0.45 in11.4 mm
08:50 PM 72.0°F22.2°C 66.2°F19.0°C 81% Calm Calm -- 30.09 in1019.0 mb 0.00 in0.0 mm 0.00 in0.0 mm 0.45 in11.4 mm
08:55 PM 71.6°F22.0°C 66.2°F19.0°C 82% Calm Calm -- 30.09 in1019.0 mb 0.00 in0.0 mm 0.00 in0.0 mm 0.45 in11.4 mm
09:00 PM 71.2°F21.8°C 66.2°F19.0°C 83% Calm Calm -- 30.09 in1019.0 mb 0.00 in0.0 mm 0.00 in0.0 mm 0.45 in11.4 mm
09:05 PM 70.9°F21.6°C 66.2°F19.0°C 83% Calm Calm -- 30.12 in1020.0 mb 0.00 in0.0 mm 0.00 in0.0 mm 0.45 in11.4 mm
09:10 PM 70.5°F21.4°C 66.2°F19.0°C 84% Calm Calm -- 30.12 in1020.0 mb 0.00 in0.0 mm 0.00 in0.0 mm 0.45 in11.4 mm
09:15 PM 70.3°F21.3°C 66.2°F19.0°C 84% Calm Calm -- 30.12 in1020.0 mb 0.00 in0.0 mm 0.00 in0.0 mm 0.45 in11.4 mm
09:20 PM 70.2°F21.2°C 66.2°F19.0°C 85% Calm Calm -- 30.09 in1019.0 mb 0.00 in0.0 mm 0.00 in0.0 mm 0.45 in11.4 mm
09:25 PM 69.8°F21.0°C 66.2°F19.0°C 85% Calm Calm -- 30.09 in1019.0 mb 0.00 in0.0 mm 0.00 in0.0 mm 0.45 in11.4 mm
09:30 PM 69.8°F21.0°C 66.2°F19.0°C 86% Calm Calm -- 30.09 in1019.0 mb 0.00 in0.0 mm 0.00 in0.0 mm 0.45 in11.4 mm
09:35 PM 69.6°F20.9°C 66.2°F19.0°C 87% Calm Calm -- 30.09 in1019.0 mb 0.00 in0.0 mm 0.00 in0.0 mm 0.45 in11.4 mm
09:40 PM 69.4°F20.8°C 66.2°F19.0°C 87% Calm Calm -- 30.09 in1019.0 mb 0.00 in0.0 mm 0.00 in0.0 mm 0.45 in11.4 mm
09:45 PM 69.4°F20.8°C 66.2°F19.0°C 88% Calm Calm -- 30.09 in1019.0 mb 0.00 in0.0 mm 0.00 in0.0 mm 0.45 in11.4 mm
09:50 PM 69.3°F20.7°C 66.2°F19.0°C 88% Calm Calm -- 30.15 in1021.0 mb 0.00 in0.0 mm 0.00 in0.0 mm 0.45 in11.4 mm
09:55 PM 69.3°F20.7°C 66.2°F19.0°C 88% Calm Calm -- 30.15 in1021.0 mb 0.00 in0.0 mm 0.00 in0.0 mm 0.45 in11.4 mm
10:00 PM 69.3°F20.7°C 66.2°F19.0°C 89% Calm Calm -- 30.15 in1021.0 mb 0.00 in0.0 mm 0.00 in0.0 mm 0.45 in11.4 mm
10:05 PM 69.3°F20.7°C 66.2°F19.0°C 89% Calm Calm -- 30.15 in1021.0 mb 0.00 in0.0 mm 0.00 in0.0 mm 0.45 in11.4 mm
10:10 PM 68.9°F20.5°C 66.2°F19.0°C 89% Calm Calm -- 30.15 in1021.0 mb 0.00 in0.0 mm 0.00 in0.0 mm 0.45 in11.4 mm
10:15 PM 68.7°F20.4°C 66.2°F19.0°C 89% Calm Calm -- 30.15 in1021.0 mb 0.00 in0.0 mm 0.00 in0.0 mm 0.45 in11.4 mm
10:20 PM 68.5°F20.3°C 66.2°F19.0°C 89% Calm Calm -- 30.15 in1021.0 mb 0.00 in0.0 mm 0.00 in0.0 mm 0.45 in11.4 mm
10:25 PM 68.4°F20.2°C 66.2°F19.0°C 90% Calm Calm -- 30.15 in1021.0 mb 0.00 in0.0 mm 0.00 in0.0 mm 0.45 in11.4 mm
10:30 PM 68.5°F20.3°C 66.2°F19.0°C 90% Calm Calm -- 30.15 in1021.0 mb 0.00 in0.0 mm 0.00 in0.0 mm 0.45 in11.4 mm
10:35 PM 68.7°F20.4°C 66.2°F19.0°C 92% Calm Calm -- 30.18 in1022.0 mb 0.00 in0.0 mm 0.00 in0.0 mm 0.45 in11.4 mm
10:40 PM 68.7°F20.4°C 66.2°F19.0°C 92% Calm Calm -- 30.18 in1022.0 mb 0.00 in0.0 mm 0.00 in0.0 mm 0.45 in11.4 mm
10:45 PM 68.9°F20.5°C 66.2°F19.0°C 92% Calm Calm -- 30.18 in1022.0 mb 0.00 in0.0 mm 0.00 in0.0 mm 0.45 in11.4 mm
10:50 PM 69.1°F20.6°C 66.2°F19.0°C 92% Calm Calm -- 30.18 in1022.0 mb 0.00 in0.0 mm 0.00 in0.0 mm 0.45 in11.4 mm
10:55 PM 69.1°F20.6°C 66.2°F19.0°C 92% Calm Calm -- 30.18 in1022.0 mb 0.00 in0.0 mm 0.00 in0.0 mm 0.45 in11.4 mm
11:00 PM 68.9°F20.5°C 66.2°F19.0°C 92% Calm Calm -- 30.18 in1022.0 mb 0.00 in0.0 mm 0.00 in0.0 mm 0.45 in11.4 mm
11:05 PM 68.9°F20.5°C 66.2°F19.0°C 92% Calm Calm -- 30.15 in1021.0 mb 0.00 in0.0 mm 0.00 in0.0 mm 0.45 in11.4 mm
11:10 PM 68.7°F20.4°C 66.2°F19.0°C 92% Calm Calm -- 30.15 in1021.0 mb 0.00 in0.0 mm 0.00 in0.0 mm 0.45 in11.4 mm
11:15 PM 68.5°F20.3°C 66.2°F19.0°C 92% Calm Calm -- 30.15 in1021.0 mb 0.00 in0.0 mm 0.00 in0.0 mm 0.45 in11.4 mm
11:20 PM 68.4°F20.2°C 66.2°F19.0°C 92% Calm Calm -- 30.18 in1022.0 mb 0.00 in0.0 mm 0.00 in0.0 mm 0.45 in11.4 mm
11:25 PM 68.2°F20.1°C 66.2°F19.0°C 92% Calm Calm -- 30.18 in1022.0 mb 0.00 in0.0 mm 0.00 in0.0 mm 0.45 in11.4 mm
11:30 PM 68.0°F20.0°C 66.2°F19.0°C 92% Calm Calm -- 30.18 in1022.0 mb 0.00 in0.0 mm 0.00 in0.0 mm 0.45 in11.4 mm
11:35 PM 68.0°F20.0°C 66.2°F19.0°C 92% Calm Calm -- 30.18 in1022.0 mb 0.00 in0.0 mm 0.00 in0.0 mm 0.45 in11.4 mm
11:40 PM 68.0°F20.0°C 66.2°F19.0°C 93% Calm Calm -- 30.18 in1022.0 mb 0.00 in0.0 mm 0.00 in0.0 mm 0.45 in11.4 mm
11:45 PM 68.0°F20.0°C 66.2°F19.0°C 93% Calm Calm -- 30.18 in1022.0 mb 0.00 in0.0 mm 0.00 in0.0 mm 0.45 in11.4 mm
11:50 PM 67.6°F19.8°C 66.2°F19.0°C 93% Calm Calm -- 30.18 in1022.0 mb 0.00 in0.0 mm 0.00 in0.0 mm 0.45 in11.4 mm
11:55 PM 67.5°F19.7°C 66.2°F19.0°C 93% Calm Calm -- 30.18 in1022.0 mb 0.00 in0.0 mm 0.00 in0.0 mm 0.45 in11.4 mm